createdAt,value
2023-02-11T00:02:01.644Z,63.60
2023-02-11T00:04:34.205Z,67.50
2023-02-11T00:07:06.442Z,70.90
2023-02-11T00:09:38.601Z,62.60
2023-02-11T00:12:10.914Z,65.30
2023-02-11T00:14:43.350Z,61.20
2023-02-11T00:17:15.856Z,55.70
2023-02-11T00:19:50.354Z,52.00
2023-02-11T00:22:22.726Z,50.20
2023-02-11T00:24:55.017Z,47.30
2023-02-11T00:27:27.523Z,51.50
2023-02-11T00:30:02.405Z,49.80
2023-02-11T00:32:36.568Z,52.60
2023-02-11T00:35:11.454Z,50.90
2023-02-11T00:37:44.630Z,43.20
2023-02-11T00:40:16.914Z,46.00
2023-02-11T00:42:49.254Z,52.90
2023-02-11T00:45:22.580Z,51.50
2023-02-11T00:47:54.694Z,56.30
2023-02-11T00:50:27.170Z,56.00
2023-02-11T00:53:01.439Z,48.50
2023-02-11T00:55:35.765Z,57.10
2023-02-11T00:58:07.965Z,53.30
2023-02-11T01:00:41.525Z,53.10
2023-02-11T01:03:13.682Z,54.90
2023-02-11T01:05:46.081Z,50.40
2023-02-11T01:08:18.388Z,51.60
2023-02-11T01:10:57.219Z,55.20
2023-02-11T01:13:30.261Z,57.00
2023-02-11T01:16:02.718Z,60.20
2023-02-11T01:18:35.415Z,50.70
2023-02-11T01:21:08.963Z,51.80
2023-02-11T01:23:41.239Z,55.20
2023-02-11T01:26:13.614Z,47.20
2023-02-11T01:28:46.189Z,54.00
2023-02-11T01:31:18.691Z,46.10
2023-02-11T01:33:51.017Z,44.20
2023-02-11T01:36:23.147Z,49.20
2023-02-11T01:38:55.679Z,54.00
2023-02-11T01:41:28.240Z,42.80
2023-02-11T01:44:29.659Z,43.50
2023-02-11T01:47:04.905Z,36.50
2023-02-11T01:49:39.885Z,32.10
2023-02-11T01:52:15.784Z,37.80
2023-02-11T01:55:10.080Z,36.90
2023-02-11T01:57:46.597Z,40.60
2023-02-11T02:02:59.193Z,38.90
2023-02-11T02:05:37.407Z,37.10
2023-02-11T02:08:15.828Z,33.70
2023-02-11T02:10:54.013Z,35.60
2023-02-11T02:13:27.154Z,37.10
2023-02-11T02:16:01.242Z,37.90
2023-02-11T02:18:51.201Z,36.60
2023-02-11T02:22:10.878Z,39.70
2023-02-11T02:27:38.896Z,40.00
2023-02-11T02:30:47.941Z,33.00
2023-02-11T02:33:35.461Z,44.70
2023-02-11T02:36:16.113Z,42.30
2023-02-11T02:38:54.421Z,40.30
2023-02-11T02:41:29.981Z,40.50
2023-02-11T02:44:02.336Z,38.90
2023-02-11T02:46:36.516Z,37.50
2023-02-11T02:49:16.198Z,34.20
2023-02-11T02:52:15.820Z,37.90
2023-02-11T02:55:13.018Z,41.60
2023-02-11T02:58:01.652Z,36.50
2023-02-11T03:00:44.334Z,37.30
2023-02-11T03:03:31.422Z,43.10
2023-02-11T03:06:06.726Z,44.40
2023-02-11T03:08:44.930Z,45.70
2023-02-11T03:11:20.822Z,41.10
2023-02-11T03:13:55.177Z,47.50
2023-02-11T03:16:29.171Z,41.10
2023-02-11T03:19:05.205Z,42.60
2023-02-11T03:21:42.639Z,43.30
2023-02-11T03:24:18.612Z,43.30
2023-02-11T03:26:53.862Z,44.80
2023-02-11T03:29:36.206Z,59.40
2023-02-11T03:32:16.397Z,60.10
2023-02-11T03:34:54.328Z,48.40
2023-02-11T03:37:30.157Z,42.30
2023-02-11T03:40:06.467Z,48.00
2023-02-11T03:42:42.241Z,43.60
2023-02-11T03:45:18.678Z,38.20
2023-02-11T03:50:27.861Z,33.70
2023-02-11T03:53:03.125Z,36.90
2023-02-11T03:55:40.593Z,41.10
2023-02-11T03:58:13.443Z,36.20
2023-02-11T04:00:46.468Z,34.80
2023-02-11T04:03:19.327Z,36.50
2023-02-11T04:05:52.423Z,39.50
2023-02-11T04:08:24.792Z,40.60
2023-02-11T04:10:56.859Z,33.00
2023-02-11T04:13:29.159Z,41.60
2023-02-11T04:16:01.370Z,38.70
2023-02-11T04:18:33.571Z,42.20
2023-02-11T04:21:05.808Z,42.50
2023-02-11T04:23:38.346Z,41.50
2023-02-11T04:26:10.477Z,40.50
2023-02-11T04:28:42.830Z,39.30
2023-02-11T04:31:15.070Z,36.90
2023-02-11T04:33:48.102Z,42.80
2023-02-11T04:36:20.230Z,36.40
2023-02-11T04:38:52.558Z,38.50
2023-02-11T04:41:24.635Z,40.80
2023-02-11T04:43:56.794Z,38.80
2023-02-11T04:46:29.032Z,42.10
2023-02-11T04:49:01.358Z,33.00
2023-02-11T04:51:34.454Z,37.20
2023-02-11T04:54:06.842Z,48.10
2023-02-11T04:56:39.003Z,49.30
2023-02-11T04:59:12.041Z,52.00
2023-02-11T05:01:44.747Z,46.70
2023-02-11T05:04:17.391Z,41.30
2023-02-11T05:06:49.772Z,41.50
2023-02-11T05:09:22.367Z,61.30
2023-02-11T05:11:54.803Z,65.80
2023-02-11T05:14:27.079Z,49.60
2023-02-11T05:16:59.201Z,43.90
2023-02-11T05:19:32.557Z,30.10
2023-02-11T05:22:05.055Z,34.10
2023-02-11T05:24:37.458Z,36.60
2023-02-11T05:27:09.672Z,38.20
2023-02-11T05:29:41.987Z,40.20
2023-02-11T05:32:14.391Z,39.00
2023-02-11T05:34:46.931Z,38.40
2023-02-11T05:37:19.580Z,37.00
2023-02-11T05:39:52.301Z,30.60
2023-02-11T05:42:24.381Z,36.10
2023-02-11T05:44:56.436Z,32.40
2023-02-11T05:47:29.020Z,37.30
2023-02-11T05:50:01.754Z,36.00
2023-02-11T05:52:34.272Z,36.60
2023-02-11T05:55:07.836Z,35.30
2023-02-11T05:57:40.190Z,32.00
2023-02-11T06:00:14.930Z,40.30
2023-02-11T06:02:47.248Z,48.30
2023-02-11T06:05:20.400Z,33.70
2023-02-11T06:07:52.578Z,34.30
2023-02-11T06:10:25.001Z,29.00
2023-02-11T06:12:57.148Z,30.70
2023-02-11T06:15:29.570Z,33.90
2023-02-11T06:18:01.782Z,33.80
2023-02-11T06:20:34.111Z,31.80
2023-02-11T06:23:06.221Z,35.20
2023-02-11T06:25:38.658Z,34.80
2023-02-11T06:28:11.623Z,35.20
2023-02-11T06:30:43.991Z,37.50
2023-02-11T06:33:16.913Z,37.70
2023-02-11T06:35:49.444Z,34.70
2023-02-11T06:38:24.144Z,34.30
2023-02-11T06:40:56.426Z,30.50
2023-02-11T06:43:28.777Z,33.70
2023-02-11T06:46:01.471Z,30.80
2023-02-11T06:48:34.066Z,27.40
2023-02-11T06:51:08.364Z,30.70
2023-02-11T06:53:42.348Z,32.50
2023-02-11T06:56:16.981Z,41.70
2023-02-11T06:58:49.209Z,43.30
2023-02-11T07:01:21.483Z,49.60
2023-02-11T07:03:54.820Z,41.60
2023-02-11T07:06:28.543Z,51.40
2023-02-11T07:09:00.797Z,28.80
2023-02-11T07:11:33.776Z,39.90
2023-02-11T07:14:09.525Z,42.30
2023-02-11T07:16:42.173Z,47.30
2023-02-11T07:19:14.567Z,51.70
2023-02-11T07:21:46.772Z,63.60
2023-02-11T07:24:18.933Z,58.10
2023-02-11T07:26:51.514Z,52.80
2023-02-11T07:29:23.915Z,63.30
2023-02-11T07:31:56.432Z,62.00
2023-02-11T07:34:28.945Z,49.50
2023-02-11T07:37:01.213Z,52.40
2023-02-11T07:39:33.597Z,61.50
2023-02-11T07:42:10.563Z,92.70
2023-02-11T07:44:44.668Z,64.10
2023-02-11T07:47:17.240Z,61.90
2023-02-11T07:49:51.158Z,55.10
2023-02-11T07:52:24.686Z,33.80
2023-02-11T07:54:57.959Z,42.70
2023-02-11T07:57:30.807Z,46.60
2023-02-11T08:00:03.132Z,33.50
2023-02-11T08:02:43.002Z,26.80
2023-02-11T08:05:15.423Z,32.60
2023-02-11T08:07:47.598Z,30.60
2023-02-11T08:10:19.753Z,29.30
2023-02-11T08:12:51.948Z,30.00
2023-02-11T08:15:24.349Z,31.00
2023-02-11T08:17:56.682Z,29.70
2023-02-11T08:20:29.755Z,34.40
2023-02-11T08:23:02.274Z,33.10
2023-02-11T08:25:35.528Z,31.40
2023-02-11T08:28:09.434Z,28.40
2023-02-11T08:30:41.733Z,28.60
2023-02-11T08:33:13.900Z,32.40
2023-02-11T08:35:46.678Z,31.00
2023-02-11T08:38:19.053Z,30.50
2023-02-11T08:40:51.522Z,35.30
2023-02-11T08:43:24.920Z,32.70
2023-02-11T08:45:59.521Z,31.90
2023-02-11T08:48:34.421Z,33.90
2023-02-11T08:51:11.290Z,29.40
2023-02-11T08:53:43.624Z,35.70
2023-02-11T08:56:17.540Z,28.20
2023-02-11T08:58:50.639Z,29.40
2023-02-11T09:01:26.245Z,29.30
2023-02-11T09:03:59.598Z,30.10
2023-02-11T09:06:32.081Z,33.80
2023-02-11T09:09:04.658Z,27.70
2023-02-11T09:11:38.199Z,35.20
2023-02-11T09:14:16.639Z,31.90
2023-02-11T09:16:49.398Z,34.30
2023-02-11T09:19:23.234Z,36.90
2023-02-11T09:21:55.985Z,42.90
2023-02-11T09:24:29.017Z,41.70
2023-02-11T09:27:01.363Z,42.10
2023-02-11T09:29:33.761Z,49.00
2023-02-11T09:32:09.754Z,39.00
2023-02-11T09:34:43.078Z,30.20
2023-02-11T09:37:15.379Z,36.10
2023-02-11T09:39:47.960Z,31.30
2023-02-11T09:42:45.631Z,30.10
2023-02-11T09:45:23.756Z,35.90
2023-02-11T09:48:00.516Z,38.20
2023-02-11T09:50:37.118Z,35.70
2023-02-11T09:53:16.320Z,38.30
2023-02-11T09:55:55.965Z,35.10
2023-02-11T09:58:32.095Z,31.80
2023-02-11T10:01:10.476Z,36.20
2023-02-11T10:04:00.688Z,38.00
2023-02-11T10:06:40.902Z,32.80
2023-02-11T10:09:33.324Z,35.00
2023-02-11T10:12:23.641Z,29.60
2023-02-11T10:15:23.790Z,33.90
2023-02-11T10:18:12.089Z,31.70
2023-02-11T10:20:58.696Z,28.00
2023-02-11T10:23:37.517Z,32.00
2023-02-11T10:26:16.342Z,32.70
2023-02-11T10:28:51.083Z,32.60
2023-02-11T10:31:26.445Z,32.30
2023-02-11T10:34:03.796Z,32.80
2023-02-11T10:36:38.901Z,31.80
2023-02-11T10:39:16.215Z,32.20
2023-02-11T10:41:52.583Z,30.70
2023-02-11T10:44:29.132Z,30.30
2023-02-11T10:47:06.395Z,29.90
2023-02-11T10:49:41.187Z,25.80
2023-02-11T10:52:23.948Z,30.50
2023-02-11T10:55:06.634Z,27.40
2023-02-11T10:57:44.811Z,25.30
2023-02-11T11:00:41.311Z,33.10
2023-02-11T11:03:22.654Z,27.50
2023-02-11T11:05:58.560Z,31.60
2023-02-11T11:08:43.823Z,32.90
2023-02-11T11:11:19.464Z,31.10
2023-02-11T11:14:01.230Z,33.50
2023-02-11T11:16:36.555Z,34.70
2023-02-11T11:19:26.465Z,29.90
2023-02-11T11:22:00.791Z,37.80
2023-02-11T11:24:42.893Z,35.00
2023-02-11T11:27:22.955Z,34.40
2023-02-11T11:29:58.345Z,34.90
2023-02-11T11:32:33.687Z,34.60
2023-02-11T11:35:22.600Z,35.50
2023-02-11T11:38:01.735Z,33.60
2023-02-11T11:40:35.801Z,34.60
2023-02-11T11:43:23.240Z,31.80
2023-02-11T11:46:03.009Z,32.20
2023-02-11T11:48:39.613Z,35.00
2023-02-11T11:51:14.903Z,39.00
2023-02-11T11:53:54.737Z,41.60
2023-02-11T11:56:30.252Z,48.80
2023-02-11T11:59:12.320Z,42.30
2023-02-11T12:04:40.586Z,40.10
2023-02-11T12:07:26.077Z,38.80
2023-02-11T12:10:26.702Z,37.20
2023-02-11T12:13:08.250Z,34.80
2023-02-11T12:15:50.997Z,29.90
2023-02-11T12:18:45.545Z,29.40
2023-02-11T12:21:31.005Z,31.60
2023-02-11T12:24:17.512Z,32.50
2023-02-11T12:26:57.905Z,26.20
2023-02-11T12:29:50.105Z,29.70
2023-02-11T12:32:36.646Z,27.80
2023-02-11T12:35:24.685Z,23.10
2023-02-11T12:38:21.818Z,28.40
2023-02-11T12:41:10.464Z,26.20
2023-02-11T12:43:45.583Z,29.60
2023-02-11T12:46:44.682Z,27.40
2023-02-11T12:49:34.709Z,22.40
2023-02-11T12:52:29.444Z,32.70
2023-02-11T12:55:09.370Z,44.80
2023-02-11T12:57:45.810Z,43.80
2023-02-11T13:00:22.457Z,31.20
2023-02-11T13:03:01.599Z,29.70
2023-02-11T13:05:40.847Z,33.50
2023-02-11T13:08:17.404Z,33.60
2023-02-11T13:10:54.349Z,33.60
2023-02-11T13:13:31.282Z,31.80
2023-02-11T13:16:08.039Z,35.70
2023-02-11T13:18:51.006Z,36.10
2023-02-11T13:21:37.889Z,31.00
2023-02-11T13:24:20.925Z,32.30
2023-02-11T13:27:02.555Z,29.10
2023-02-11T13:29:44.931Z,34.30
2023-02-11T13:35:00.537Z,32.00
2023-02-11T13:37:37.945Z,32.20
2023-02-11T13:40:24.928Z,34.40
2023-02-11T13:43:00.109Z,31.60
2023-02-11T13:45:37.192Z,32.60
2023-02-11T13:48:21.492Z,31.20
2023-02-11T13:50:57.379Z,33.50
2023-02-11T13:53:30.758Z,31.10
2023-02-11T13:56:11.608Z,34.10
2023-02-11T13:58:51.980Z,34.50
2023-02-11T14:02:16.374Z,40.70
2023-02-11T14:05:38.091Z,37.70
2023-02-11T14:08:43.136Z,39.90
2023-02-11T14:11:49.131Z,38.30
2023-02-11T14:14:28.093Z,34.80
2023-02-11T14:17:31.225Z,34.60
2023-02-11T14:20:27.591Z,36.30
2023-02-11T14:23:00.296Z,42.60
2023-02-11T14:25:33.266Z,37.00
2023-02-11T14:28:16.410Z,41.10
2023-02-11T14:31:05.212Z,35.10
2023-02-11T14:34:14.574Z,46.50
2023-02-11T14:37:05.194Z,57.70
2023-02-11T14:39:52.832Z,55.60
2023-02-11T14:42:28.422Z,45.50
2023-02-11T14:45:05.816Z,54.00
2023-02-11T14:47:46.668Z,48.30
2023-02-11T14:50:24.350Z,43.40
2023-02-11T14:53:00.217Z,52.50
2023-02-11T14:55:37.379Z,46.00
2023-02-11T14:58:17.886Z,37.40
2023-02-11T15:00:57.484Z,38.70
2023-02-11T15:03:37.702Z,32.90
2023-02-11T15:06:18.553Z,32.10
2023-02-11T15:08:54.713Z,34.70
2023-02-11T15:11:30.116Z,28.50
2023-02-11T15:14:09.297Z,29.40
2023-02-11T15:16:46.899Z,34.90
2023-02-11T15:19:26.870Z,33.80
2023-02-11T15:21:59.776Z,30.90
2023-02-11T15:24:35.151Z,28.20
2023-02-11T15:27:15.583Z,34.80
2023-02-11T15:29:50.830Z,27.20
2023-02-11T15:32:26.719Z,29.00
2023-02-11T15:34:59.235Z,31.30
2023-02-11T15:37:32.418Z,26.00
2023-02-11T15:40:19.003Z,29.70
2023-02-11T15:42:59.356Z,30.90
2023-02-11T15:45:35.051Z,30.60
2023-02-11T15:48:15.353Z,36.60
2023-02-11T15:50:55.088Z,44.80
2023-02-11T15:53:32.673Z,59.90
2023-02-11T15:56:11.410Z,28.40
2023-02-11T15:58:46.239Z,22.90
2023-02-11T16:01:19.064Z,24.30
2023-02-11T16:03:54.122Z,20.50
2023-02-11T16:06:29.541Z,42.90
2023-02-11T16:09:05.863Z,26.90
2023-02-11T16:11:55.116Z,23.10
2023-02-11T16:14:32.799Z,29.50
2023-02-11T16:17:10.522Z,21.20
2023-02-11T16:19:49.014Z,20.20
2023-02-11T16:22:26.386Z,20.50
2023-02-11T16:25:01.051Z,28.20
2023-02-11T16:27:39.287Z,28.50
2023-02-11T16:30:29.271Z,29.10
2023-02-11T16:33:01.820Z,21.60
2023-02-11T16:35:34.007Z,32.30
2023-02-11T16:38:06.572Z,27.10
2023-02-11T16:40:38.990Z,24.70
2023-02-11T16:43:11.985Z,26.20
2023-02-11T16:45:44.920Z,22.80
2023-02-11T16:48:20.369Z,25.60
2023-02-11T16:50:53.727Z,20.40
2023-02-11T16:53:27.251Z,23.50
2023-02-11T16:55:59.379Z,22.60
2023-02-11T16:58:32.121Z,24.90
2023-02-11T17:01:05.432Z,25.10
2023-02-11T17:03:40.731Z,24.30
2023-02-11T17:06:14.637Z,23.40
2023-02-11T17:08:47.967Z,23.60
2023-02-11T17:11:20.415Z,23.30
2023-02-11T17:13:52.664Z,22.80
2023-02-11T17:16:28.054Z,26.00
2023-02-11T17:19:00.263Z,29.10
2023-02-11T17:21:32.634Z,25.70
2023-02-11T17:24:05.048Z,30.40
2023-02-11T17:26:37.654Z,27.10
2023-02-11T17:29:11.656Z,21.60
2023-02-11T17:31:44.693Z,20.40
2023-02-11T17:34:18.843Z,23.10
2023-02-11T17:36:52.312Z,22.70
2023-02-11T17:39:24.732Z,26.40
2023-02-11T17:41:57.004Z,27.60
2023-02-11T17:44:30.688Z,28.00
2023-02-11T17:47:03.059Z,24.00
2023-02-11T17:49:35.356Z,25.40
2023-02-11T17:52:07.848Z,24.30
2023-02-11T17:54:40.972Z,26.20
2023-02-11T17:57:15.200Z,30.00
2023-02-11T17:59:48.111Z,32.00
2023-02-11T18:02:20.894Z,30.00
2023-02-11T18:04:56.017Z,30.20
2023-02-11T18:07:30.364Z,29.90
2023-02-11T18:10:03.427Z,31.70
2023-02-11T18:12:36.137Z,25.40
2023-02-11T18:15:10.375Z,25.90
2023-02-11T18:17:43.189Z,28.20
2023-02-11T18:20:16.116Z,23.30
2023-02-11T18:22:50.312Z,30.00
2023-02-11T18:25:23.808Z,32.30
2023-02-11T18:27:56.024Z,31.60
2023-02-11T18:30:29.696Z,26.60
2023-02-11T18:33:04.907Z,27.60
2023-02-11T18:35:40.375Z,27.90
2023-02-11T18:38:12.852Z,27.40
2023-02-11T18:40:47.590Z,19.50
2023-02-11T18:43:19.973Z,25.10
2023-02-11T18:45:53.321Z,24.90
2023-02-11T18:48:27.443Z,26.20
2023-02-11T18:50:59.738Z,24.70
2023-02-11T18:53:32.259Z,20.30
2023-02-11T18:56:10.949Z,21.60
2023-02-11T18:58:43.568Z,22.10
2023-02-11T19:01:20.844Z,18.40
2023-02-11T19:03:53.974Z,23.10
2023-02-11T19:06:28.934Z,18.70
2023-02-11T19:09:05.330Z,22.00
2023-02-11T19:11:51.129Z,18.60
2023-02-11T19:14:26.256Z,18.00
2023-02-11T19:17:00.550Z,16.60
2023-02-11T19:19:35.796Z,17.40
2023-02-11T19:22:10.509Z,61.70
2023-02-11T19:24:43.514Z,22.30
2023-02-11T19:27:16.145Z,22.80
2023-02-11T19:29:48.420Z,16.50
2023-02-11T19:32:20.745Z,20.30
2023-02-11T19:34:53.787Z,17.40
2023-02-11T19:37:25.950Z,16.40
2023-02-11T19:39:58.525Z,14.20
2023-02-11T19:42:31.403Z,17.60
2023-02-11T19:45:03.795Z,15.20
2023-02-11T19:47:36.412Z,24.10
2023-02-11T19:50:10.781Z,16.70
2023-02-11T19:52:43.569Z,15.10
2023-02-11T19:55:16.305Z,17.10
2023-02-11T19:57:48.967Z,19.60
2023-02-11T20:00:22.790Z,16.10
2023-02-11T20:02:55.139Z,15.80
2023-02-11T20:05:27.688Z,17.30
2023-02-11T20:08:00.432Z,13.80
2023-02-11T20:10:33.015Z,18.70
2023-02-11T20:13:05.406Z,17.20
2023-02-11T20:15:38.093Z,11.20
2023-02-11T20:18:10.570Z,11.30
2023-02-11T20:20:43.205Z,12.90
2023-02-11T20:23:15.892Z,14.20
2023-02-11T20:25:48.656Z,11.40
2023-02-11T20:28:20.936Z,14.00
2023-02-11T20:30:59.900Z,12.90
2023-02-11T20:33:32.636Z,13.50
2023-02-11T20:36:08.187Z,12.80
2023-02-11T20:38:40.811Z,11.80
2023-02-11T20:41:16.822Z,12.40
2023-02-11T20:43:52.568Z,14.20
2023-02-11T20:46:28.393Z,13.00
2023-02-11T20:49:01.690Z,12.60
2023-02-11T20:51:37.067Z,13.60
2023-02-11T20:54:12.737Z,14.30
2023-02-11T20:56:47.846Z,13.20
2023-02-11T20:59:21.247Z,13.30
2023-02-11T21:01:56.678Z,14.80
2023-02-11T21:04:30.932Z,14.00
2023-02-11T21:07:04.240Z,10.20
2023-02-11T21:09:36.797Z,11.30
2023-02-11T21:12:09.591Z,12.80
2023-02-11T21:14:42.059Z,10.30
2023-02-11T21:17:14.736Z,11.50
2023-02-11T21:19:47.315Z,9.70
2023-02-11T21:22:20.395Z,11.90
2023-02-11T21:24:53.420Z,13.20
2023-02-11T21:27:31.307Z,11.70
2023-02-11T21:30:03.791Z,11.90
2023-02-11T21:32:36.139Z,12.70
2023-02-11T21:35:10.590Z,13.40
2023-02-11T21:37:42.929Z,12.00
2023-02-11T21:40:16.203Z,12.20
2023-02-11T21:42:48.690Z,12.80
2023-02-11T21:45:21.696Z,13.60
2023-02-11T21:47:54.745Z,13.00
2023-02-11T21:50:27.425Z,15.20
2023-02-11T21:52:59.589Z,13.40
2023-02-11T21:55:31.790Z,13.60
2023-02-11T21:58:04.658Z,12.60
2023-02-11T22:00:36.961Z,18.10
2023-02-11T22:03:09.423Z,15.70
2023-02-11T22:05:44.141Z,15.20
2023-02-11T22:08:19.162Z,14.20
2023-02-11T22:10:52.558Z,18.50
2023-02-11T22:13:24.983Z,14.90
2023-02-11T22:16:02.929Z,16.90
2023-02-11T22:18:35.623Z,15.80
2023-02-11T22:21:10.350Z,18.10
2023-02-11T22:23:43.397Z,14.10
2023-02-11T22:26:18.604Z,15.90
2023-02-11T22:28:51.782Z,18.70
2023-02-11T22:31:26.372Z,19.50
2023-02-11T22:33:59.218Z,20.10
2023-02-11T22:36:33.274Z,42.70
2023-02-11T22:39:08.939Z,24.70
2023-02-11T22:41:43.790Z,21.70
2023-02-11T22:44:17.655Z,19.80
2023-02-11T22:46:50.289Z,16.00
2023-02-11T22:49:23.495Z,18.10
2023-02-11T22:51:56.066Z,17.50
2023-02-11T22:54:28.803Z,19.60
2023-02-11T22:57:01.245Z,18.20
2023-02-11T22:59:33.442Z,15.90
2023-02-11T23:02:05.835Z,14.90
2023-02-11T23:04:38.185Z,15.80
2023-02-11T23:07:10.993Z,12.70
2023-02-11T23:09:43.719Z,12.70
2023-02-11T23:12:16.443Z,13.70
2023-02-11T23:14:48.761Z,14.50
2023-02-11T23:17:21.279Z,12.00
2023-02-11T23:19:54.537Z,15.30
2023-02-11T23:22:27.150Z,15.70
2023-02-11T23:24:59.957Z,13.70
2023-02-11T23:27:32.520Z,13.30
2023-02-11T23:30:05.558Z,12.80
2023-02-11T23:32:41.064Z,12.70
2023-02-11T23:35:21.995Z,18.90
2023-02-11T23:37:56.522Z,13.80
2023-02-11T23:40:29.190Z,13.50
2023-02-11T23:43:01.739Z,19.60
2023-02-11T23:45:34.327Z,14.80
2023-02-11T23:48:07.050Z,15.90
2023-02-11T23:50:44.079Z,16.90
2023-02-11T23:53:17.199Z,31.70
2023-02-11T23:55:49.577Z,29.10
2023-02-11T23:58:21.941Z,23.80
